Greenville Spartanburg International Airport
KGSP : now visible

Airfield :











YOU CAN JOIN US ON...

 
LOGIN :

Register | Disclaimer

   EN    FR    IT 

 









Legend :    VFR   Marginal VFR   IFR   Intensive IFR   Very Intensive IFR
Visi :
Ceiling :
>= 8 km
>= 3000ft
5 to 8 km
1000 to 3000 ft
1500m to 5 km
500 to 1000 ft
800 to 1500m
200 to 500 ft
< 800m
< 200 ft
Symbols :   Thunderstorms  Fog  Heavy snow  Heavy precipitations  Wind > 20 kt






- Airport Elevation : 964 ft
- IATA code : GSP


KGSP - Greenville Spartanburg International

CURRENT METAR :
  • 201553Z 36007KT 10SM BKN031 24/16 A3006 RMK AO2 SLP169 T02390156

EXPIRED METARs :
  • 201453Z 07005KT 10SM FEW030 24/16 A3006 RMK AO2 SLP168 T02390161 51003
  • 201353Z 07004KT 10SM FEW019 22/17 A3005 RMK AO2 SLP167 T02170167
  • 201253Z 04004KT 10SM CLR 20/16 A3005 RMK AO2 SLP167 T02000161
  • 201153Z 00000KT 10SM CLR 17/16 A3005 RMK AO2 SLP166 T01720156 10172 20144 53005

TAF KGSP
Valid from the 20 at 12:00 until the 21 at 12:00 UTC


201121Z 2012/2112 04003KT P6SM FEW045 FEW080
FM201500 08005KT P6SM FEW030 SCT045
FM210200 00000KT P6SM FEW050
KZTL FIR / North America



MET'MAP, your aeronautical weather chart ! - Copyright ORBIFLY December 2007 - Disclaimer

ORBIFLY MET'MAP TEAM :

Programming & Development : Alexandra Zaïnal
Original concept : Baudouin d'Aumeries
Technical & hardware support : Manuel Goepfert
Assistance : Marc-Olivier Méhu




SOURCES & CREDITS :

   NOAA       Earth
Advisory